Main page
METAR-TAF:

METAR-TAF

Airports :

Gibraltar International Airport

Gibraltar, Gibraltar

latitude: 36-09N, longitude: 005-21W, elevation: 5 m

METAR: missing

Time: 08:45 (06:45 UTC)

Forecast

The report was made 1 hour and 58 minutes ago, at 04:47 UTC
Forecast valid from 18 at 06 UTC to 18 at 15 UTC
Wind 12 kt from the East
Visibility 10 km or more
Few clouds at a height of 1200 ft
Temporary
from 18 at 06 UTC to 18 at 15 UTC
Visibility: 7000 m
Scattered clouds at a height of 1800 ft
haze
Probability 30% :
Temporary
from 18 at 06 UTC to 18 at 09 UTC
Scattered clouds at a height of 1000 ft
Probability 40% :
Temporary
from 18 at 08 UTC to 18 at 15 UTC
Wind 16 kt from the East with gusts up to 26 kt

TAF: LXGB 180447Z 1806/1815 08012KT 9999 FEW012 TEMPO 1806/1815 7000 HZ SCT018 PROB30 TEMPO 1806/1809 SCT010 PROB40 TEMPO 1808/1815 09016G26KT

Weather observations and forecasts of more than 4000 airports (METAR and TAF reports).

The available stations are represented by yellow and red dots on the map.

Hover mouse over dot to see the name of the station.

Then click to see weather observations and forecasts.

To change the map : click on the green buttons with a black cross to zoom in, on the green button with a dash to zoom out, or on the green arrows for adjacent maps.


METAR-TAF: